sensor_id;sensor_type;location;lat;lon;timestamp;P1;durP1;ratioP1;P2;durP2;ratioP2
13708;SDS011;54933;51.908;7.730;2023-03-14T00:00:16;0.50;;;0.50;;
13708;SDS011;54933;51.908;7.730;2023-03-14T00:02:42;1.43;;;0.50;;
13708;SDS011;54933;51.908;7.730;2023-03-14T00:05:08;0.57;;;0.30;;
13708;SDS011;54933;51.908;7.730;2023-03-14T00:07:34;0.30;;;0.30;;
13708;SDS011;54933;51.908;7.730;2023-03-14T00:10:02;0.67;;;0.50;;
13708;SDS011;54933;51.908;7.730;2023-03-14T00:12:29;2.60;;;0.37;;
13708;SDS011;54933;51.908;7.730;2023-03-14T00:14:55;0.67;;;0.40;;
13708;SDS011;54933;51.908;7.730;2023-03-14T00:17:20;0.20;;;0.20;;
13708;SDS011;54933;51.908;7.730;2023-03-14T00:19:46;0.40;;;0.30;;
13708;SDS011;54933;51.908;7.730;2023-03-14T00:22:11;0.60;;;0.50;;
13708;SDS011;54933;51.908;7.730;2023-03-14T00:24:36;2.57;;;0.40;;
13708;SDS011;54933;51.908;7.730;2023-03-14T00:27:01;0.40;;;0.40;;
13708;SDS011;54933;51.908;7.730;2023-03-14T00:29:26;0.50;;;0.47;;
13708;SDS011;54933;51.908;7.730;2023-03-14T00:31:52;0.40;;;0.40;;
13708;SDS011;54933;51.908;7.730;2023-03-14T00:34:18;0.50;;;0.50;;
13708;SDS011;54933;51.908;7.730;2023-03-14T00:36:44;0.30;;;0.30;;
13708;SDS011;54933;51.908;7.730;2023-03-14T00:39:09;1.50;;;0.40;;
13708;SDS011;54933;51.908;7.730;2023-03-14T00:41:35;2.40;;;0.40;;
13708;SDS011;54933;51.908;7.730;2023-03-14T00:44:00;0.40;;;0.40;;
13708;SDS011;54933;51.908;7.730;2023-03-14T00:46:25;1.33;;;0.40;;
13708;SDS011;54933;51.908;7.730;2023-03-14T00:48:50;0.40;;;0.27;;
13708;SDS011;54933;51.908;7.730;2023-03-14T00:51:16;0.30;;;0.30;;
13708;SDS011;54933;51.908;7.730;2023-03-14T00:53:41;2.00;;;0.37;;
13708;SDS011;54933;51.908;7.730;2023-03-14T00:56:08;0.27;;;0.27;;
13708;SDS011;54933;51.908;7.730;2023-03-14T00:58:35;0.40;;;0.40;;
13708;SDS011;54933;51.908;7.730;2023-03-14T01:01:10;0.33;;;0.30;;
13708;SDS011;54933;51.908;7.730;2023-03-14T01:03:39;0.30;;;0.30;;
13708;SDS011;54933;51.908;7.730;2023-03-14T01:06:08;0.80;;;0.60;;
13708;SDS011;54933;51.908;7.730;2023-03-14T01:08:34;0.60;;;0.30;;
13708;SDS011;54933;51.908;7.730;2023-03-14T01:11:04;0.33;;;0.33;;
13708;SDS011;54933;51.908;7.730;2023-03-14T01:13:30;1.43;;;0.40;;
13708;SDS011;54933;51.908;7.730;2023-03-14T01:16:00;1.10;;;0.40;;
13708;SDS011;54933;51.908;7.730;2023-03-14T01:18:26;1.23;;;0.43;;
13708;SDS011;54933;51.908;7.730;2023-03-14T01:20:52;0.20;;;0.20;;
13708;SDS011;54933;51.908;7.730;2023-03-14T01:23:17;0.43;;;0.43;;
13708;SDS011;54933;51.908;7.730;2023-03-14T01:25:42;0.40;;;0.40;;
13708;SDS011;54933;51.908;7.730;2023-03-14T01:28:07;0.50;;;0.33;;
13708;SDS011;54933;51.908;7.730;2023-03-14T01:30:33;0.27;;;0.27;;
13708;SDS011;54933;51.908;7.730;2023-03-14T01:32:58;0.30;;;0.30;;
13708;SDS011;54933;51.908;7.730;2023-03-14T01:35:23;0.43;;;0.43;;
13708;SDS011;54933;51.908;7.730;2023-03-14T01:37:49;0.50;;;0.37;;
13708;SDS011;54933;51.908;7.730;2023-03-14T01:40:14;0.63;;;0.30;;
13708;SDS011;54933;51.908;7.730;2023-03-14T01:42:44;0.47;;;0.47;;
13708;SDS011;54933;51.908;7.730;2023-03-14T01:48:22;0.40;;;0.40;;
13708;SDS011;54933;51.908;7.730;2023-03-14T01:50:47;0.30;;;0.30;;
13708;SDS011;54933;51.908;7.730;2023-03-14T01:53:13;0.33;;;0.33;;
13708;SDS011;54933;51.908;7.730;2023-03-14T01:55:39;0.30;;;0.30;;
13708;SDS011;54933;51.908;7.730;2023-03-14T01:58:05;0.20;;;0.20;;
13708;SDS011;54933;51.908;7.730;2023-03-14T02:00:31;0.50;;;0.50;;
13708;SDS011;54933;51.908;7.730;2023-03-14T02:02:58;1.27;;;0.33;;
13708;SDS011;54933;51.908;7.730;2023-03-14T02:05:27;0.30;;;0.30;;
13708;SDS011;54933;51.908;7.730;2023-03-14T02:07:57;0.30;;;0.30;;
13708;SDS011;54933;51.908;7.730;2023-03-14T02:10:24;1.30;;;0.53;;
13708;SDS011;54933;51.908;7.730;2023-03-14T02:12:53;1.40;;;0.50;;
13708;SDS011;54933;51.908;7.730;2023-03-14T02:15:21;0.20;;;0.20;;
13708;SDS011;54933;51.908;7.730;2023-03-14T02:17:47;0.30;;;0.30;;
13708;SDS011;54933;51.908;7.730;2023-03-14T02:20:57;0.73;;;0.57;;
13708;SDS011;54933;51.908;7.730;2023-03-14T02:23:06;0.40;;;0.33;;
13708;SDS011;54933;51.908;7.730;2023-03-14T02:28:06;0.50;;;0.40;;
13708;SDS011;54933;51.908;7.730;2023-03-14T02:30:31;0.87;;;0.40;;
13708;SDS011;54933;51.908;7.730;2023-03-14T02:32:59;0.60;;;0.50;;
13708;SDS011;54933;51.908;7.730;2023-03-14T02:35:29;0.20;;;0.20;;
13708;SDS011;54933;51.908;7.730;2023-03-14T02:38:17;1.83;;;0.30;;
13708;SDS011;54933;51.908;7.730;2023-03-14T02:40:48;0.47;;;0.30;;
13708;SDS011;54933;51.908;7.730;2023-03-14T02:43:14;0.53;;;0.40;;
13708;SDS011;54933;51.908;7.730;2023-03-14T02:45:43;1.27;;;0.50;;
13708;SDS011;54933;51.908;7.730;2023-03-14T02:48:12;0.40;;;0.40;;
13708;SDS011;54933;51.908;7.730;2023-03-14T02:50:40;0.70;;;0.37;;
13708;SDS011;54933;51.908;7.730;2023-03-14T02:53:06;0.30;;;0.30;;
13708;SDS011;54933;51.908;7.730;2023-03-14T02:55:31;0.50;;;0.30;;
13708;SDS011;54933;51.908;7.730;2023-03-14T02:57:56;0.30;;;0.30;;
13708;SDS011;54933;51.908;7.730;2023-03-14T03:00:22;0.50;;;0.40;;
13708;SDS011;54933;51.908;7.730;2023-03-14T03:02:47;0.50;;;0.40;;
13708;SDS011;54933;51.908;7.730;2023-03-14T03:05:12;0.20;;;0.20;;
13708;SDS011;54933;51.908;7.730;2023-03-14T03:07:38;0.47;;;0.47;;
13708;SDS011;54933;51.908;7.730;2023-03-14T03:10:03;0.23;;;0.23;;
13708;SDS011;54933;51.908;7.730;2023-03-14T03:12:29;0.23;;;0.23;;
13708;SDS011;54933;51.908;7.730;2023-03-14T03:14:54;0.30;;;0.30;;
13708;SDS011;54933;51.908;7.730;2023-03-14T03:17:19;0.20;;;0.20;;
13708;SDS011;54933;51.908;7.730;2023-03-14T03:19:44;0.20;;;0.20;;
13708;SDS011;54933;51.908;7.730;2023-03-14T03:22:10;0.53;;;0.30;;
13708;SDS011;54933;51.908;7.730;2023-03-14T03:24:35;0.40;;;0.30;;
13708;SDS011;54933;51.908;7.730;2023-03-14T03:27:01;0.93;;;0.20;;
13708;SDS011;54933;51.908;7.730;2023-03-14T03:29:26;0.37;;;0.13;;
13708;SDS011;54933;51.908;7.730;2023-03-14T03:31:52;0.23;;;0.23;;
13708;SDS011;54933;51.908;7.730;2023-03-14T03:34:17;0.20;;;0.20;;
13708;SDS011;54933;51.908;7.730;2023-03-14T03:36:43;0.30;;;0.30;;
13708;SDS011;54933;51.908;7.730;2023-03-14T03:39:08;0.40;;;0.30;;
13708;SDS011;54933;51.908;7.730;2023-03-14T03:41:33;0.53;;;0.30;;
13708;SDS011;54933;51.908;7.730;2023-03-14T03:43:59;0.37;;;0.27;;
13708;SDS011;54933;51.908;7.730;2023-03-14T03:46:24;0.40;;;0.20;;
13708;SDS011;54933;51.908;7.730;2023-03-14T03:48:56;0.27;;;0.27;;
13708;SDS011;54933;51.908;7.730;2023-03-14T03:51:23;0.70;;;0.27;;
13708;SDS011;54933;51.908;7.730;2023-03-14T03:53:48;0.20;;;0.20;;
13708;SDS011;54933;51.908;7.730;2023-03-14T03:56:13;0.77;;;0.30;;
13708;SDS011;54933;51.908;7.730;2023-03-14T03:58:38;0.13;;;0.13;;
13708;SDS011;54933;51.908;7.730;2023-03-14T04:01:06;0.90;;;0.30;;
13708;SDS011;54933;51.908;7.730;2023-03-14T04:03:32;0.30;;;0.30;;
13708;SDS011;54933;51.908;7.730;2023-03-14T04:05:58;0.30;;;0.30;;
13708;SDS011;54933;51.908;7.730;2023-03-14T04:08:25;0.50;;;0.40;;
13708;SDS011;54933;51.908;7.730;2023-03-14T04:10:53;0.30;;;0.30;;
13708;SDS011;54933;51.908;7.730;2023-03-14T04:13:20;1.20;;;0.30;;
13708;SDS011;54933;51.908;7.730;2023-03-14T04:15:45;0.40;;;0.30;;
13708;SDS011;54933;51.908;7.730;2023-03-14T04:18:10;0.30;;;0.30;;
13708;SDS011;54933;51.908;7.730;2023-03-14T04:20:36;0.30;;;0.20;;
13708;SDS011;54933;51.908;7.730;2023-03-14T04:23:01;0.30;;;0.30;;
13708;SDS011;54933;51.908;7.730;2023-03-14T04:25:26;0.20;;;0.20;;
13708;SDS011;54933;51.908;7.730;2023-03-14T04:27:51;0.30;;;0.30;;
13708;SDS011;54933;51.908;7.730;2023-03-14T04:30:17;0.33;;;0.33;;
13708;SDS011;54933;51.908;7.730;2023-03-14T04:32:42;0.30;;;0.30;;
13708;SDS011;54933;51.908;7.730;2023-03-14T04:35:07;0.30;;;0.30;;
13708;SDS011;54933;51.908;7.730;2023-03-14T04:37:33;0.20;;;0.20;;
13708;SDS011;54933;51.908;7.730;2023-03-14T04:39:58;0.20;;;0.20;;
13708;SDS011;54933;51.908;7.730;2023-03-14T04:42:23;0.23;;;0.23;;
13708;SDS011;54933;51.908;7.730;2023-03-14T04:44:48;0.13;;;0.13;;
13708;SDS011;54933;51.908;7.730;2023-03-14T04:47:14;0.20;;;0.20;;
13708;SDS011;54933;51.908;7.730;2023-03-14T04:49:40;0.20;;;0.20;;
13708;SDS011;54933;51.908;7.730;2023-03-14T04:52:05;0.43;;;0.20;;
13708;SDS011;54933;51.908;7.730;2023-03-14T04:54:30;0.87;;;0.30;;
13708;SDS011;54933;51.908;7.730;2023-03-14T04:56:56;0.23;;;0.20;;
13708;SDS011;54933;51.908;7.730;2023-03-14T04:59:21;0.43;;;0.33;;
13708;SDS011;54933;51.908;7.730;2023-03-14T05:01:46;1.03;;;0.20;;
13708;SDS011;54933;51.908;7.730;2023-03-14T05:04:13;0.67;;;0.20;;
13708;SDS011;54933;51.908;7.730;2023-03-14T05:06:38;0.30;;;0.30;;
13708;SDS011;54933;51.908;7.730;2023-03-14T05:09:04;0.20;;;0.20;;
13708;SDS011;54933;51.908;7.730;2023-03-14T05:11:29;0.33;;;0.33;;
13708;SDS011;54933;51.908;7.730;2023-03-14T05:13:55;0.20;;;0.20;;
13708;SDS011;54933;51.908;7.730;2023-03-14T05:16:20;0.20;;;0.20;;
13708;SDS011;54933;51.908;7.730;2023-03-14T05:18:46;0.50;;;0.40;;
13708;SDS011;54933;51.908;7.730;2023-03-14T05:21:11;0.20;;;0.20;;
13708;SDS011;54933;51.908;7.730;2023-03-14T05:23:36;0.27;;;0.27;;
13708;SDS011;54933;51.908;7.730;2023-03-14T05:26:02;0.37;;;0.17;;
13708;SDS011;54933;51.908;7.730;2023-03-14T05:28:27;0.50;;;0.27;;
13708;SDS011;54933;51.908;7.730;2023-03-14T05:30:53;1.67;;;0.30;;
13708;SDS011;54933;51.908;7.730;2023-03-14T05:33:18;0.30;;;0.30;;
13708;SDS011;54933;51.908;7.730;2023-03-14T05:35:43;0.30;;;0.30;;
13708;SDS011;54933;51.908;7.730;2023-03-14T05:38:09;0.27;;;0.20;;
13708;SDS011;54933;51.908;7.730;2023-03-14T05:40:34;0.10;;;0.10;;
13708;SDS011;54933;51.908;7.730;2023-03-14T05:42:59;0.13;;;0.13;;
13708;SDS011;54933;51.908;7.730;2023-03-14T05:45:25;0.27;;;0.23;;
13708;SDS011;54933;51.908;7.730;2023-03-14T05:47:50;0.10;;;0.10;;
13708;SDS011;54933;51.908;7.730;2023-03-14T05:50:15;0.60;;;0.20;;
13708;SDS011;54933;51.908;7.730;2023-03-14T05:52:40;2.13;;;0.20;;
13708;SDS011;54933;51.908;7.730;2023-03-14T05:55:06;0.37;;;0.30;;
13708;SDS011;54933;51.908;7.730;2023-03-14T05:57:31;0.20;;;0.20;;
13708;SDS011;54933;51.908;7.730;2023-03-14T05:59:57;0.27;;;0.27;;
13708;SDS011;54933;51.908;7.730;2023-03-14T06:02:22;1.40;;;0.30;;
13708;SDS011;54933;51.908;7.730;2023-03-14T06:04:47;0.67;;;0.33;;
13708;SDS011;54933;51.908;7.730;2023-03-14T06:07:12;0.17;;;0.10;;
13708;SDS011;54933;51.908;7.730;2023-03-14T06:09:38;0.40;;;0.30;;
13708;SDS011;54933;51.908;7.730;2023-03-14T06:12:04;0.67;;;0.20;;
13708;SDS011;54933;51.908;7.730;2023-03-14T06:14:30;0.57;;;0.27;;
13708;SDS011;54933;51.908;7.730;2023-03-14T06:16:55;0.20;;;0.20;;
13708;SDS011;54933;51.908;7.730;2023-03-14T06:19:21;3.10;;;0.30;;
13708;SDS011;54933;51.908;7.730;2023-03-14T06:21:46;4.07;;;0.20;;
13708;SDS011;54933;51.908;7.730;2023-03-14T06:24:11;0.97;;;0.40;;
13708;SDS011;54933;51.908;7.730;2023-03-14T06:26:36;0.93;;;0.40;;
13708;SDS011;54933;51.908;7.730;2023-03-14T06:29:02;0.50;;;0.20;;
13708;SDS011;54933;51.908;7.730;2023-03-14T06:31:29;2.20;;;0.87;;
13708;SDS011;54933;51.908;7.730;2023-03-14T06:33:58;3.80;;;0.50;;
13708;SDS011;54933;51.908;7.730;2023-03-14T06:36:23;2.70;;;0.50;;
13708;SDS011;54933;51.908;7.730;2023-03-14T06:38:48;2.40;;;0.70;;
13708;SDS011;54933;51.908;7.730;2023-03-14T06:41:14;4.47;;;0.70;;
13708;SDS011;54933;51.908;7.730;2023-03-14T06:43:39;5.50;;;1.03;;
13708;SDS011;54933;51.908;7.730;2023-03-14T06:46:04;10.60;;;1.33;;
13708;SDS011;54933;51.908;7.730;2023-03-14T06:48:30;16.93;;;1.50;;
13708;SDS011;54933;51.908;7.730;2023-03-14T06:50:55;30.67;;;2.67;;
13708;SDS011;54933;51.908;7.730;2023-03-14T06:53:20;33.03;;;1.90;;
13708;SDS011;54933;51.908;7.730;2023-03-14T06:55:46;13.53;;;1.70;;
13708;SDS011;54933;51.908;7.730;2023-03-14T06:58:11;22.10;;;2.10;;
13708;SDS011;54933;51.908;7.730;2023-03-14T07:00:37;23.97;;;1.53;;
13708;SDS011;54933;51.908;7.730;2023-03-14T07:03:02;16.30;;;2.07;;
13708;SDS011;54933;51.908;7.730;2023-03-14T07:05:27;21.23;;;1.70;;
13708;SDS011;54933;51.908;7.730;2023-03-14T07:07:53;14.90;;;1.80;;
13708;SDS011;54933;51.908;7.730;2023-03-14T07:10:18;20.30;;;1.70;;
13708;SDS011;54933;51.908;7.730;2023-03-14T07:12:44;20.93;;;2.40;;
13708;SDS011;54933;51.908;7.730;2023-03-14T07:15:09;12.87;;;1.77;;
13708;SDS011;54933;51.908;7.730;2023-03-14T07:17:35;18.40;;;1.67;;
13708;SDS011;54933;51.908;7.730;2023-03-14T07:20:00;8.30;;;1.07;;
13708;SDS011;54933;51.908;7.730;2023-03-14T07:22:26;15.73;;;1.77;;
13708;SDS011;54933;51.908;7.730;2023-03-14T07:24:51;14.00;;;1.13;;
13708;SDS011;54933;51.908;7.730;2023-03-14T07:27:16;38.23;;;3.83;;
13708;SDS011;54933;51.908;7.730;2023-03-14T07:29:41;22.57;;;2.87;;
13708;SDS011;54933;51.908;7.730;2023-03-14T07:32:07;24.40;;;3.77;;
13708;SDS011;54933;51.908;7.730;2023-03-14T07:34:32;15.40;;;1.67;;
13708;SDS011;54933;51.908;7.730;2023-03-14T07:36:58;23.57;;;3.07;;
13708;SDS011;54933;51.908;7.730;2023-03-14T07:39:23;26.53;;;1.67;;
13708;SDS011;54933;51.908;7.730;2023-03-14T07:41:49;15.63;;;1.37;;
13708;SDS011;54933;51.908;7.730;2023-03-14T07:44:14;25.93;;;1.50;;
13708;SDS011;54933;51.908;7.730;2023-03-14T07:46:39;12.33;;;1.20;;
13708;SDS011;54933;51.908;7.730;2023-03-14T07:49:04;12.13;;;1.73;;
13708;SDS011;54933;51.908;7.730;2023-03-14T07:51:30;8.13;;;1.30;;
13708;SDS011;54933;51.908;7.730;2023-03-14T07:53:55;11.00;;;1.27;;
13708;SDS011;54933;51.908;7.730;2023-03-14T07:56:20;10.13;;;1.50;;
13708;SDS011;54933;51.908;7.730;2023-03-14T07:58:45;8.53;;;1.07;;
13708;SDS011;54933;51.908;7.730;2023-03-14T08:01:11;6.80;;;0.70;;
13708;SDS011;54933;51.908;7.730;2023-03-14T08:03:36;10.33;;;1.20;;
13708;SDS011;54933;51.908;7.730;2023-03-14T08:06:01;5.40;;;1.07;;
13708;SDS011;54933;51.908;7.730;2023-03-14T08:08:27;10.07;;;1.10;;
13708;SDS011;54933;51.908;7.730;2023-03-14T08:10:52;9.33;;;0.80;;
13708;SDS011;54933;51.908;7.730;2023-03-14T08:13:17;9.63;;;0.70;;
13708;SDS011;54933;51.908;7.730;2023-03-14T08:15:42;4.33;;;0.80;;
13708;SDS011;54933;51.908;7.730;2023-03-14T08:18:13;7.50;;;0.90;;
13708;SDS011;54933;51.908;7.730;2023-03-14T08:20:38;4.47;;;0.60;;
13708;SDS011;54933;51.908;7.730;2023-03-14T08:23:03;2.50;;;0.47;;
13708;SDS011;54933;51.908;7.730;2023-03-14T08:25:29;1.40;;;0.37;;
13708;SDS011;54933;51.908;7.730;2023-03-14T08:27:55;3.17;;;0.70;;
13708;SDS011;54933;51.908;7.730;2023-03-14T08:30:21;0.50;;;0.50;;
13708;SDS011;54933;51.908;7.730;2023-03-14T08:32:47;6.43;;;0.77;;
13708;SDS011;54933;51.908;7.730;2023-03-14T08:35:12;2.87;;;1.60;;
13708;SDS011;54933;51.908;7.730;2023-03-14T08:37:38;1.30;;;0.40;;
13708;SDS011;54933;51.908;7.730;2023-03-14T08:40:05;2.07;;;0.50;;
13708;SDS011;54933;51.908;7.730;2023-03-14T08:42:34;3.33;;;0.47;;
13708;SDS011;54933;51.908;7.730;2023-03-14T08:45:00;1.00;;;0.50;;
13708;SDS011;54933;51.908;7.730;2023-03-14T08:47:25;1.97;;;0.40;;
13708;SDS011;54933;51.908;7.730;2023-03-14T08:49:50;1.17;;;0.47;;
13708;SDS011;54933;51.908;7.730;2023-03-14T08:52:16;2.80;;;0.70;;
13708;SDS011;54933;51.908;7.730;2023-03-14T08:54:43;1.30;;;0.77;;
13708;SDS011;54933;51.908;7.730;2023-03-14T08:57:08;0.77;;;0.40;;
13708;SDS011;54933;51.908;7.730;2023-03-14T08:59:34;1.80;;;0.40;;
13708;SDS011;54933;51.908;7.730;2023-03-14T09:01:59;1.87;;;0.43;;
13708;SDS011;54933;51.908;7.730;2023-03-14T09:04:28;2.27;;;0.60;;
13708;SDS011;54933;51.908;7.730;2023-03-14T09:06:53;1.13;;;0.40;;
13708;SDS011;54933;51.908;7.730;2023-03-14T09:09:18;0.40;;;0.40;;
13708;SDS011;54933;51.908;7.730;2023-03-14T09:11:44;1.70;;;0.40;;
13708;SDS011;54933;51.908;7.730;2023-03-14T09:14:09;3.03;;;0.50;;
13708;SDS011;54933;51.908;7.730;2023-03-14T09:16:34;0.30;;;0.30;;
13708;SDS011;54933;51.908;7.730;2023-03-14T09:19:00;4.50;;;0.70;;
13708;SDS011;54933;51.908;7.730;2023-03-14T09:21:26;5.70;;;0.43;;
13708;SDS011;54933;51.908;7.730;2023-03-14T09:23:52;2.00;;;0.37;;
13708;SDS011;54933;51.908;7.730;2023-03-14T09:26:17;1.07;;;0.30;;
13708;SDS011;54933;51.908;7.730;2023-03-14T09:28:42;0.50;;;0.50;;
13708;SDS011;54933;51.908;7.730;2023-03-14T09:31:08;2.87;;;0.40;;
13708;SDS011;54933;51.908;7.730;2023-03-14T09:33:35;1.70;;;0.43;;
13708;SDS011;54933;51.908;7.730;2023-03-14T09:36:01;3.93;;;0.70;;
13708;SDS011;54933;51.908;7.730;2023-03-14T09:38:27;7.87;;;0.50;;
13708;SDS011;54933;51.908;7.730;2023-03-14T09:40:53;0.40;;;0.40;;
13708;SDS011;54933;51.908;7.730;2023-03-14T09:43:19;0.40;;;0.40;;
13708;SDS011;54933;51.908;7.730;2023-03-14T09:45:48;3.70;;;0.43;;
13708;SDS011;54933;51.908;7.730;2023-03-14T09:48:24;5.00;;;0.73;;
13708;SDS011;54933;51.908;7.730;2023-03-14T09:50:56;2.80;;;0.90;;
13708;SDS011;54933;51.908;7.730;2023-03-14T09:53:26;2.07;;;0.80;;
13708;SDS011;54933;51.908;7.730;2023-03-14T09:55:54;4.10;;;1.00;;
13708;SDS011;54933;51.908;7.730;2023-03-14T09:58:23;2.97;;;0.87;;
13708;SDS011;54933;51.908;7.730;2023-03-14T10:00:49;3.00;;;0.90;;
13708;SDS011;54933;51.908;7.730;2023-03-14T10:03:21;1.10;;;0.90;;
13708;SDS011;54933;51.908;7.730;2023-03-14T10:05:50;5.57;;;1.30;;
13708;SDS011;54933;51.908;7.730;2023-03-14T10:08:16;2.03;;;0.90;;
13708;SDS011;54933;51.908;7.730;2023-03-14T10:10:41;6.53;;;1.00;;
13708;SDS011;54933;51.908;7.730;2023-03-14T10:15:34;7.20;;;0.90;;
13708;SDS011;54933;51.908;7.730;2023-03-14T10:18:01;3.23;;;1.00;;
13708;SDS011;54933;51.908;7.730;2023-03-14T10:20:35;5.03;;;0.97;;
13708;SDS011;54933;51.908;7.730;2023-03-14T10:23:45;7.73;;;1.03;;
13708;SDS011;54933;51.908;7.730;2023-03-14T10:26:01;2.57;;;1.00;;
13708;SDS011;54933;51.908;7.730;2023-03-14T10:28:38;1.70;;;1.00;;
13708;SDS011;54933;51.908;7.730;2023-03-14T10:31:11;2.73;;;1.03;;
13708;SDS011;54933;51.908;7.730;2023-03-14T10:33:37;1.90;;;0.70;;
13708;SDS011;54933;51.908;7.730;2023-03-14T10:36:05;21.17;;;1.57;;
13708;SDS011;54933;51.908;7.730;2023-03-14T10:38:42;18.23;;;1.80;;
13708;SDS011;54933;51.908;7.730;2023-03-14T10:41:41;18.00;;;1.20;;
13708;SDS011;54933;51.908;7.730;2023-03-14T10:43:59;11.60;;;0.97;;
13708;SDS011;54933;51.908;7.730;2023-03-14T10:46:26;2.80;;;0.70;;
13708;SDS011;54933;51.908;7.730;2023-03-14T10:48:55;7.80;;;1.00;;
13708;SDS011;54933;51.908;7.730;2023-03-14T10:51:27;5.80;;;0.90;;
13708;SDS011;54933;51.908;7.730;2023-03-14T10:53:58;3.93;;;1.00;;
13708;SDS011;54933;51.908;7.730;2023-03-14T10:56:44;3.30;;;1.07;;
13708;SDS011;54933;51.908;7.730;2023-03-14T10:59:13;4.60;;;0.70;;
13708;SDS011;54933;51.908;7.730;2023-03-14T11:01:55;3.27;;;0.33;;
13708;SDS011;54933;51.908;7.730;2023-03-14T11:07:32;6.40;;;0.40;;
13708;SDS011;54933;51.908;7.730;2023-03-14T11:22:20;2.00;;;0.60;;
13708;SDS011;54933;51.908;7.730;2023-03-14T11:27:52;1.97;;;0.53;;
13708;SDS011;54933;51.908;7.730;2023-03-14T11:30:37;0.67;;;0.37;;
13708;SDS011;54933;51.908;7.730;2023-03-14T11:33:22;0.53;;;0.53;;
13708;SDS011;54933;51.908;7.730;2023-03-14T11:35:58;1.30;;;0.60;;
13708;SDS011;54933;51.908;7.730;2023-03-14T11:38:43;6.07;;;0.70;;
13708;SDS011;54933;51.908;7.730;2023-03-14T11:41:19;2.87;;;0.43;;
13708;SDS011;54933;51.908;7.730;2023-03-14T11:43:56;4.33;;;0.60;;
13708;SDS011;54933;51.908;7.730;2023-03-14T11:46:34;2.63;;;0.63;;
13708;SDS011;54933;51.908;7.730;2023-03-14T11:49:24;2.67;;;0.70;;
13708;SDS011;54933;51.908;7.730;2023-03-14T11:51:59;2.20;;;0.83;;
13708;SDS011;54933;51.908;7.730;2023-03-14T11:54:48;0.40;;;0.40;;
13708;SDS011;54933;51.908;7.730;2023-03-14T11:57:19;0.70;;;0.33;;
13708;SDS011;54933;51.908;7.730;2023-03-14T12:07:26;1.83;;;0.50;;
13708;SDS011;54933;51.908;7.730;2023-03-14T12:10:01;1.07;;;0.30;;
13708;SDS011;54933;51.908;7.730;2023-03-14T12:12:27;5.00;;;0.37;;
13708;SDS011;54933;51.908;7.730;2023-03-14T12:14:55;1.97;;;0.43;;
13708;SDS011;54933;51.908;7.730;2023-03-14T12:17:27;2.63;;;1.00;;
13708;SDS011;54933;51.908;7.730;2023-03-14T12:20:02;8.03;;;0.70;;
13708;SDS011;54933;51.908;7.730;2023-03-14T12:22:42;13.67;;;0.90;;
13708;SDS011;54933;51.908;7.730;2023-03-14T12:25:14;0.80;;;0.43;;
13708;SDS011;54933;51.908;7.730;2023-03-14T12:27:44;4.13;;;0.73;;
13708;SDS011;54933;51.908;7.730;2023-03-14T12:30:32;91.47;;;6.43;;
13708;SDS011;54933;51.908;7.730;2023-03-14T12:35:48;38.30;;;2.80;;
13708;SDS011;54933;51.908;7.730;2023-03-14T12:43:53;37.50;;;4.33;;
13708;SDS011;54933;51.908;7.730;2023-03-14T12:51:33;19.07;;;1.90;;
13708;SDS011;54933;51.908;7.730;2023-03-14T12:54:07;14.30;;;2.67;;
13708;SDS011;54933;51.908;7.730;2023-03-14T12:56:45;18.47;;;1.93;;
13708;SDS011;54933;51.908;7.730;2023-03-14T12:59:17;16.40;;;1.90;;
13708;SDS011;54933;51.908;7.730;2023-03-14T13:01:55;16.33;;;1.80;;
13708;SDS011;54933;51.908;7.730;2023-03-14T13:04:31;23.90;;;1.67;;
13708;SDS011;54933;51.908;7.730;2023-03-14T13:06:59;12.23;;;1.40;;
13708;SDS011;54933;51.908;7.730;2023-03-14T13:12:11;19.97;;;1.53;;
13708;SDS011;54933;51.908;7.730;2023-03-14T13:14:48;15.80;;;1.47;;
13708;SDS011;54933;51.908;7.730;2023-03-14T13:17:19;12.53;;;1.20;;
13708;SDS011;54933;51.908;7.730;2023-03-14T13:19:53;16.67;;;2.73;;
13708;SDS011;54933;51.908;7.730;2023-03-14T13:22:26;6.20;;;0.87;;
13708;SDS011;54933;51.908;7.730;2023-03-14T13:25:03;1.53;;;0.80;;
13708;SDS011;54933;51.908;7.730;2023-03-14T13:27:35;10.97;;;1.20;;
13708;SDS011;54933;51.908;7.730;2023-03-14T13:30:17;12.43;;;1.50;;
13708;SDS011;54933;51.908;7.730;2023-03-14T13:32:46;6.10;;;1.17;;
13708;SDS011;54933;51.908;7.730;2023-03-14T13:35:14;9.07;;;0.90;;
13708;SDS011;54933;51.908;7.730;2023-03-14T13:37:44;7.03;;;1.20;;
13708;SDS011;54933;51.908;7.730;2023-03-14T13:46:01;4.00;;;0.63;;
13708;SDS011;54933;51.908;7.730;2023-03-14T13:48:29;7.63;;;1.20;;
13708;SDS011;54933;51.908;7.730;2023-03-14T13:51:06;16.47;;;1.83;;
13708;SDS011;54933;51.908;7.730;2023-03-14T13:53:45;5.13;;;0.80;;
13708;SDS011;54933;51.908;7.730;2023-03-14T13:56:15;7.17;;;1.03;;
13708;SDS011;54933;51.908;7.730;2023-03-14T13:58:42;2.83;;;1.10;;
13708;SDS011;54933;51.908;7.730;2023-03-14T14:03:51;9.23;;;1.30;;
13708;SDS011;54933;51.908;7.730;2023-03-14T14:08:49;6.80;;;1.17;;
13708;SDS011;54933;51.908;7.730;2023-03-14T14:11:18;8.23;;;0.97;;
13708;SDS011;54933;51.908;7.730;2023-03-14T14:13:53;12.63;;;1.00;;
13708;SDS011;54933;51.908;7.730;2023-03-14T14:16:20;8.03;;;1.37;;
13708;SDS011;54933;51.908;7.730;2023-03-14T14:18:50;6.87;;;1.00;;
13708;SDS011;54933;51.908;7.730;2023-03-14T14:21:17;126.47;;;7.73;;
13708;SDS011;54933;51.908;7.730;2023-03-14T14:23:43;151.00;;;11.77;;
13708;SDS011;54933;51.908;7.730;2023-03-14T14:26:13;56.60;;;3.53;;
13708;SDS011;54933;51.908;7.730;2023-03-14T14:28:41;64.73;;;3.83;;
13708;SDS011;54933;51.908;7.730;2023-03-14T14:33:54;27.90;;;3.03;;
13708;SDS011;54933;51.908;7.730;2023-03-14T14:41:53;22.63;;;2.70;;
13708;SDS011;54933;51.908;7.730;2023-03-14T14:44:29;30.00;;;2.87;;
13708;SDS011;54933;51.908;7.730;2023-03-14T14:46:57;20.07;;;2.60;;
13708;SDS011;54933;51.908;7.730;2023-03-14T14:49:27;19.97;;;2.70;;
13708;SDS011;54933;51.908;7.730;2023-03-14T14:52:04;28.17;;;2.23;;
13708;SDS011;54933;51.908;7.730;2023-03-14T14:54:38;25.53;;;3.23;;
13708;SDS011;54933;51.908;7.730;2023-03-14T14:57:26;25.53;;;2.47;;
13708;SDS011;54933;51.908;7.730;2023-03-14T14:59:55;18.13;;;1.73;;
13708;SDS011;54933;51.908;7.730;2023-03-14T15:02:29;22.50;;;2.40;;
13708;SDS011;54933;51.908;7.730;2023-03-14T15:04:57;21.10;;;1.80;;
13708;SDS011;54933;51.908;7.730;2023-03-14T15:07:22;15.50;;;1.40;;
13708;SDS011;54933;51.908;7.730;2023-03-14T15:09:47;13.70;;;1.33;;
13708;SDS011;54933;51.908;7.730;2023-03-14T15:12:13;9.63;;;1.70;;
13708;SDS011;54933;51.908;7.730;2023-03-14T15:14:38;12.63;;;1.43;;
13708;SDS011;54933;51.908;7.730;2023-03-14T15:17:05;7.63;;;1.93;;
13708;SDS011;54933;51.908;7.730;2023-03-14T15:19:34;27.03;;;1.80;;
13708;SDS011;54933;51.908;7.730;2023-03-14T15:21:59;41.20;;;2.77;;
13708;SDS011;54933;51.908;7.730;2023-03-14T15:24:24;20.73;;;1.47;;
13708;SDS011;54933;51.908;7.730;2023-03-14T15:26:50;34.10;;;2.17;;
13708;SDS011;54933;51.908;7.730;2023-03-14T15:29:16;31.00;;;3.13;;
13708;SDS011;54933;51.908;7.730;2023-03-14T15:31:42;20.53;;;1.67;;
13708;SDS011;54933;51.908;7.730;2023-03-14T15:34:08;21.23;;;1.83;;
13708;SDS011;54933;51.908;7.730;2023-03-14T15:36:35;8.97;;;1.80;;
13708;SDS011;54933;51.908;7.730;2023-03-14T15:39:02;11.60;;;1.67;;
13708;SDS011;54933;51.908;7.730;2023-03-14T15:41:29;16.53;;;1.83;;
13708;SDS011;54933;51.908;7.730;2023-03-14T15:43:55;14.17;;;1.30;;
13708;SDS011;54933;51.908;7.730;2023-03-14T15:46:20;13.20;;;1.47;;
13708;SDS011;54933;51.908;7.730;2023-03-14T15:48:47;10.23;;;1.80;;
13708;SDS011;54933;51.908;7.730;2023-03-14T15:51:14;14.80;;;1.43;;
13708;SDS011;54933;51.908;7.730;2023-03-14T15:53:40;6.17;;;0.87;;
13708;SDS011;54933;51.908;7.730;2023-03-14T15:56:06;6.43;;;1.20;;
13708;SDS011;54933;51.908;7.730;2023-03-14T15:58:35;10.93;;;0.87;;